Time;durP1;ratioP1;P1;durP2;ratioP2;P2;SDS_P1;SDS_P2;PMS_P1;PMS_P2;Temp;Humidity;BMP_temperature;BMP_pressure;BME280_temperature;BME280_humidity;BME280_pressure;Samples;Min_cycle;Max_cycle;Signal;HPM_P1;HPM_P2
2023/12/12 00:00:32;;;;;;;6.78;2.63;;;4.70;83.30;;;;;;5052714;28;20029;-70
2023/12/12 00:02:59;;;;;;;2.60;1.48;;;4.70;83.40;;;;;;5068311;28;20098;-73
2023/12/12 00:05:25;;;;;;;2.42;2.22;;;4.70;83.50;;;;;;5071348;28;20095;-74
2023/12/12 00:07:51;;;;;;;3.22;1.77;;;4.60;83.40;;;;;;5070924;28;20437;-71
2023/12/12 00:10:17;;;;;;;8.10;3.15;;;4.60;83.30;;;;;;5054235;28;20056;-70
2023/12/12 00:12:44;;;;;;;9.25;4.97;;;4.60;83.40;;;;;;5072824;28;20020;-71
2023/12/12 00:15:11;;;;;;;10.63;6.75;;;4.70;83.30;;;;;;5071422;28;20056;-72
2023/12/12 00:17:38;;;;;;;10.80;5.88;;;4.70;83.20;;;;;;5071637;28;20044;-71
2023/12/12 00:20:25;;;;;;;10.18;5.55;;;4.60;83.10;;;;;;5071073;28;20173;-73
2023/12/12 00:22:51;;;;;;;6.67;4.90;;;4.70;83.50;;;;;;5072717;28;20478;-73
2023/12/12 00:25:17;;;;;;;9.10;5.55;;;4.60;83.30;;;;;;5070956;28;20824;-70
2023/12/12 00:27:43;;;;;;;11.23;5.57;;;4.60;83.50;;;;;;5071431;28;20456;-73
2023/12/12 00:30:10;;;;;;;;;;;4.50;83.50;;;;;;5054372;28;20462;-71
2023/12/12 00:32:36;;;;;;;6.07;4.80;;;4.50;83.00;;;;;;5071260;28;20007;-70
2023/12/12 00:35:02;;;;;;;9.63;3.92;;;4.40;83.50;;;;;;5071070;28;20052;-73
2023/12/12 00:37:28;;;;;;;4.72;3.10;;;4.40;83.50;;;;;;5071292;28;20397;-72
2023/12/12 00:39:54;;;;;;;5.38;3.10;;;4.40;83.50;;;;;;5054451;28;20032;-71
2023/12/12 00:42:20;;;;;;;11.57;4.85;;;4.40;83.60;;;;;;5070416;28;20062;-73
2023/12/12 00:44:46;;;;;;;9.05;4.07;;;4.30;83.50;;;;;;5071174;28;20436;-73
2023/12/12 00:47:12;;;;;;;7.55;5.72;;;4.30;83.50;;;;;;5071090;28;20040;-71
2023/12/12 00:49:38;;;;;;;7.55;4.18;;;4.20;83.50;;;;;;5071104;28;20043;-71
2023/12/12 00:52:04;;;;;;;7.90;4.60;;;4.20;83.50;;;;;;5071984;28;20047;-71
2023/12/12 00:54:30;;;;;;;7.60;3.33;;;4.20;83.40;;;;;;5071826;28;20037;-73
2023/12/12 00:56:56;;;;;;;5.57;3.00;;;4.20;83.40;;;;;;5072251;28;20050;-73
2023/12/12 00:59:22;;;;;;;4.75;2.47;;;4.10;83.20;;;;;;5072425;28;20040;-71
2023/12/12 01:01:48;;;;;;;3.55;2.35;;;4.10;83.20;;;;;;5071700;28;20044;-73
2023/12/12 01:04:14;;;;;;;3.33;2.35;;;4.10;83.20;;;;;;5072048;28;20328;-70
2023/12/12 01:06:40;;;;;;;3.70;2.70;;;4.10;83.30;;;;;;5070789;28;20033;-72
2023/12/12 01:09:07;;;;;;;8.65;4.03;;;4.10;83.40;;;;;;5072651;28;20043;-73
2023/12/12 01:11:33;;;;;;;6.78;3.72;;;4.00;83.40;;;;;;5070419;28;20040;-74
2023/12/12 01:13:59;;;;;;;14.23;3.90;;;4.00;83.40;;;;;;5053978;28;20119;-74
2023/12/12 01:16:25;;;;;;;8.25;5.38;;;4.00;83.80;;;;;;5071981;28;20033;-73
2023/12/12 01:18:51;;;;;;;6.60;5.20;;;4.10;83.50;;;;;;5074097;28;20090;-73
2023/12/12 01:21:17;;;;;;;7.22;5.88;;;4.00;83.30;;;;;;5074334;28;20489;-71
2023/12/12 01:24:01;;;;;;;9.55;5.80;;;4.00;83.30;;;;;;5076175;28;20474;-71
2023/12/12 01:26:28;;;;;;;8.68;4.88;;;4.00;83.50;;;;;;5074586;28;20036;-71
2023/12/12 01:28:54;;;;;;;9.40;5.63;;;4.00;83.50;;;;;;5074855;28;20444;-73
2023/12/12 01:31:20;;;;;;;5.65;3.90;;;4.00;83.50;;;;;;5074191;28;20051;-73
2023/12/12 01:33:49;;;;;;;4.88;3.30;;;4.00;83.30;;;;;;5075708;28;20052;-71
2023/12/12 01:36:15;;;;;;;8.02;4.40;;;4.00;83.40;;;;;;5075847;28;20063;-71
2023/12/12 01:38:41;;;;;;;8.57;3.10;;;4.00;83.50;;;;;;5074619;28;20044;-71
2023/12/12 01:41:07;;;;;;;6.88;3.15;;;4.00;83.50;;;;;;5075313;28;20294;-73
2023/12/12 01:43:33;;;;;;;4.82;3.42;;;4.00;83.40;;;;;;5075595;28;20044;-70
2023/12/12 01:46:04;;;;;;;4.38;2.38;;;3.90;83.50;;;;;;5057466;28;20036;-73
2023/12/12 01:48:32;;;;;;;2.78;1.85;;;3.90;83.50;;;;;;5074427;28;20032;-72
2023/12/12 01:50:59;;;;;;;4.55;3.28;;;3.90;83.60;;;;;;5075062;28;20032;-70
2023/12/12 01:53:47;;;;;;;6.63;2.83;;;3.90;83.60;;;;;;5074131;28;20036;-73
2023/12/12 01:56:13;;;;;;;;;;;3.90;83.70;;;;;;5075000;28;20035;-73
2023/12/12 01:58:43;;;;;;;5.03;2.47;;;3.90;83.10;;;;;;5074310;28;19950;-73
2023/12/12 02:01:10;;;;;;;2.70;1.48;;;3.90;83.30;;;;;;5073630;28;20082;-71
2023/12/12 02:03:36;;;;;;;2.95;1.77;;;4.00;83.30;;;;;;5074975;28;20037;-73
2023/12/12 02:06:05;;;;;;;3.05;1.75;;;4.00;83.20;;;;;;5073816;28;20033;-70
2023/12/12 02:08:31;;;;;;;2.75;1.98;;;4.00;83.30;;;;;;5075065;28;20456;-71
2023/12/12 02:10:58;;;;;;;3.10;1.75;;;4.00;83.40;;;;;;5073430;28;20452;-71
2023/12/12 02:13:24;;;;;;;4.82;2.15;;;4.00;83.50;;;;;;5075023;28;20086;-73
2023/12/12 02:15:50;;;;;;;5.50;2.47;;;4.00;83.50;;;;;;5074965;28;20016;-73
2023/12/12 02:18:16;;;;;;;2.20;1.30;;;4.00;83.60;;;;;;5073714;28;20036;-73
2023/12/12 02:20:43;;;;;;;2.85;1.33;;;4.00;83.50;;;;;;5053172;28;20033;-71
2023/12/12 02:25:49;;;;;;;5.70;3.58;;;4.10;83.20;;;;;;5054702;28;20029;-71
2023/12/12 02:28:16;;;;;;;4.05;2.88;;;4.10;82.80;;;;;;5054932;28;20111;-73
2023/12/12 02:30:42;;;;;;;2.90;2.17;;;4.20;82.70;;;;;;5057405;28;20401;-73
2023/12/12 02:33:08;;;;;;;5.38;2.72;;;4.20;82.70;;;;;;5073388;28;20029;-70
2023/12/12 02:35:34;;;;;;;4.25;2.72;;;4.30;82.70;;;;;;5074679;28;20086;-70
2023/12/12 02:38:00;;;;;;;3.58;2.30;;;4.40;82.50;;;;;;5056709;28;20043;-70
2023/12/12 02:40:26;;;;;;;4.28;1.50;;;4.40;82.20;;;;;;5074152;28;20397;-70
2023/12/12 02:42:52;;;;;;;2.90;1.65;;;4.50;82.20;;;;;;5056529;28;20083;-73
2023/12/12 02:45:19;;;;;;;4.18;2.03;;;4.50;82.10;;;;;;5056159;28;20033;-71
2023/12/12 02:47:44;;;;;;;;;;;4.60;81.40;;;;;;5074035;28;20029;-73
2023/12/12 02:50:11;;;;;;;2.80;1.85;;;4.60;82.00;;;;;;5072511;28;19974;-73
2023/12/12 02:52:37;;;;;;;6.38;3.42;;;4.60;81.00;;;;;;5073145;28;20017;-71
2023/12/12 02:55:03;;;;;;;5.40;3.15;;;4.70;82.50;;;;;;5074612;28;20478;-74
2023/12/12 02:57:29;;;;;;;;;;;4.70;81.20;;;;;;5073670;28;20466;-73
2023/12/12 02:59:55;;;;;;;6.43;4.00;;;4.80;81.70;;;;;;5073190;28;19917;-73
2023/12/12 03:02:21;;;;;;;5.15;3.55;;;4.80;81.50;;;;;;5073628;28;20115;-70
2023/12/12 03:04:47;;;;;;;5.20;3.90;;;4.80;81.50;;;;;;5074173;28;20053;-70
2023/12/12 03:07:13;;;;;;;3.63;2.08;;;4.80;81.50;;;;;;5072998;28;20033;-71
2023/12/12 03:09:40;;;;;;;5.57;2.53;;;4.90;81.60;;;;;;5072817;28;20440;-73
2023/12/12 03:12:06;;;;;;;;;;;4.90;80.90;;;;;;5074191;28;20037;-73
2023/12/12 03:14:34;;;;;;;5.20;2.75;;;4.90;80.80;;;;;;5072735;28;19970;-71
2023/12/12 03:17:00;;;;;;;3.53;2.53;;;5.00;81.10;;;;;;5072635;28;20032;-73
2023/12/12 03:19:27;;;;;;;4.63;2.92;;;5.00;81.40;;;;;;5074392;28;20041;-73
2023/12/12 03:21:54;;;;;;;5.45;2.88;;;5.10;81.40;;;;;;5071980;28;20028;-71
2023/12/12 03:24:20;;;;;;;;;;;5.10;80.80;;;;;;5074494;28;20078;-70
2023/12/12 03:26:46;;;;;;;3.78;2.53;;;5.10;81.40;;;;;;5073557;28;19912;-70
2023/12/12 03:29:12;;;;;;;1.80;1.05;;;5.20;81.10;;;;;;5074038;28;20079;-73
2023/12/12 03:31:39;;;;;;;3.63;1.88;;;5.20;81.30;;;;;;5071776;28;20037;-71
2023/12/12 03:34:05;;;;;;;;;;;5.20;81.50;;;;;;5072870;28;20111;-73
2023/12/12 03:36:32;;;;;;;3.90;1.70;;;5.30;81.40;;;;;;5073594;28;19912;-71
2023/12/12 03:38:58;;;;;;;;;;;5.30;81.50;;;;;;5074174;28;20082;-74
2023/12/12 03:41:24;;;;;;;24.08;10.82;;;5.40;81.60;;;;;;5071568;28;19916;-73
2023/12/12 03:43:51;;;;;;;18.13;11.05;;;5.40;81.40;;;;;;5073432;28;20059;-73
2023/12/12 03:49:02;;;;;;;6.47;4.55;;;5.40;81.50;;;;;;5072337;28;20106;-73
2023/12/12 03:51:28;;;;;;;10.07;4.25;;;5.30;81.90;;;;;;5071578;28;20036;-71
2023/12/12 03:53:54;;;;;;;10.45;4.85;;;5.30;82.20;;;;;;5073041;28;20056;-70
2023/12/12 03:56:20;;;;;;;7.50;4.45;;;5.20;82.50;;;;;;5073146;28;20029;-71
2023/12/12 03:58:47;;;;;;;15.30;9.18;;;5.10;83.00;;;;;;5055214;28;20527;-73
2023/12/12 04:01:13;;;;;;;6.85;4.97;;;5.10;83.40;;;;;;5072594;28;20120;-73
2023/12/12 04:03:40;;;;;;;;;;;5.00;83.30;;;;;;5073511;28;20047;-73
2023/12/12 04:06:06;;;;;;;8.57;5.03;;;5.00;83.70;;;;;;5071672;28;20143;-74
2023/12/12 04:08:33;;;;;;;14.02;6.35;;;4.90;83.00;;;;;;5073190;28;20040;-74
2023/12/12 04:10:59;;;;;;;10.95;6.30;;;5.00;83.60;;;;;;5070973;28;20029;-72
2023/12/12 04:13:25;;;;;;;13.82;6.47;;;5.00;83.60;;;;;;5072899;28;20039;-71
2023/12/12 04:15:51;;;;;;;11.25;6.50;;;5.00;83.60;;;;;;5054703;28;20033;-71
2023/12/12 04:18:17;;;;;;;6.20;3.75;;;5.00;83.60;;;;;;5072682;28;20094;-70
2023/12/12 04:20:43;;;;;;;11.73;4.70;;;4.90;83.50;;;;;;5072225;28;20024;-74
2023/12/12 04:23:10;;;;;;;9.07;4.30;;;5.00;83.30;;;;;;5072576;28;20062;-74
2023/12/12 04:25:36;;;;;;;12.13;6.82;;;5.10;83.00;;;;;;5071149;28;20036;-70
2023/12/12 04:28:02;;;;;;;12.15;6.80;;;5.20;82.80;;;;;;5071245;28;20033;-74
2023/12/12 04:30:28;;;;;;;22.65;9.93;;;5.20;82.70;;;;;;5050730;28;20044;-71
2023/12/12 04:32:54;;;;;;;9.70;4.85;;;5.20;82.50;;;;;;5052365;28;20033;-70
2023/12/12 04:35:21;;;;;;;8.77;3.63;;;5.20;82.40;;;;;;5052475;28;20037;-74
2023/12/12 04:37:47;;;;;;;8.10;4.07;;;5.20;82.40;;;;;;5051322;28;20032;-74
2023/12/12 04:40:13;;;;;;;5.38;2.67;;;5.20;82.40;;;;;;5053179;28;20033;-73
2023/12/12 04:42:39;;;;;;;9.35;4.18;;;5.30;82.50;;;;;;5071189;28;20039;-71
2023/12/12 04:45:06;;;;;;;6.80;3.00;;;5.20;82.40;;;;;;5072493;28;20040;-71
2023/12/12 04:47:32;;;;;;;9.82;6.13;;;5.30;82.40;;;;;;5071178;28;20036;-74
2023/12/12 04:49:58;;;;;;;4.82;2.35;;;5.30;82.60;;;;;;5072761;28;20071;-70
2023/12/12 04:52:24;;;;;;;4.20;3.00;;;5.20;82.50;;;;;;5071548;28;20040;-74
2023/12/12 04:54:50;;;;;;;6.38;3.17;;;5.20;82.60;;;;;;5070428;28;20041;-70
2023/12/12 04:57:18;;;;;;;3.00;1.92;;;5.20;82.70;;;;;;5070973;28;20047;-71
2023/12/12 04:59:44;;;;;;;5.25;1.70;;;5.20;82.70;;;;;;5072721;28;20045;-74
2023/12/12 05:02:10;;;;;;;5.30;2.35;;;5.20;82.70;;;;;;5070370;28;20025;-74
2023/12/12 05:04:37;;;;;;;4.47;2.63;;;5.20;82.70;;;;;;5054071;28;20045;-70
2023/12/12 05:07:04;;;;;;;2.80;2.13;;;5.10;82.70;;;;;;5070841;28;20037;-71
2023/12/12 05:09:30;;;;;;;4.13;2.15;;;5.10;82.60;;;;;;5071083;28;20037;-73
2023/12/12 05:11:56;;;;;;;3.63;2.38;;;5.10;82.80;;;;;;5071511;28;20047;-73
2023/12/12 05:14:22;;;;;;;3.17;2.08;;;5.10;82.80;;;;;;5072068;28;20552;-73
2023/12/12 05:16:49;;;;;;;2.47;1.85;;;5.10;82.80;;;;;;5072073;28;20032;-74
2023/12/12 05:19:15;;;;;;;10.60;4.68;;;5.10;82.70;;;;;;5072162;28;20441;-70
2023/12/12 05:21:41;;;;;;;3.45;2.10;;;5.10;82.70;;;;;;5070354;28;20063;-73
2023/12/12 05:24:07;;;;;;;6.88;2.38;;;5.10;82.80;;;;;;5071939;28;20041;-73
2023/12/12 05:26:33;;;;;;;3.38;1.58;;;5.00;82.90;;;;;;5071823;28;20032;-73
2023/12/12 05:28:59;;;;;;;2.60;1.85;;;5.00;82.90;;;;;;5071981;28;20026;-71
2023/12/12 05:31:25;;;;;;;3.88;2.40;;;5.00;83.00;;;;;;5071258;28;20040;-70
2023/12/12 05:33:51;;;;;;;3.58;2.20;;;5.10;82.90;;;;;;5070471;28;20028;-71
2023/12/12 05:36:17;;;;;;;3.15;2.55;;;5.10;82.50;;;;;;5071814;28;20571;-73
2023/12/12 05:38:43;;;;;;;6.40;2.05;;;5.10;82.30;;;;;;5070487;28;20139;-70
2023/12/12 05:41:09;;;;;;;4.10;2.90;;;5.20;82.20;;;;;;5070032;28;20037;-71
2023/12/12 05:43:35;;;;;;;2.58;1.73;;;5.20;82.30;;;;;;5070277;28;20091;-73
2023/12/12 05:46:02;;;;;;;2.15;1.77;;;5.30;82.10;;;;;;5071442;28;20040;-70
2023/12/12 05:48:29;;;;;;;6.00;2.80;;;5.30;82.00;;;;;;5071839;28;20457;-70
2023/12/12 05:50:56;;;;;;;2.55;1.85;;;5.30;82.10;;;;;;5069870;28;20036;-73
2023/12/12 05:53:22;;;;;;;2.22;1.35;;;5.20;82.10;;;;;;5071723;28;20063;-70
2023/12/12 05:55:48;;;;;;;2.38;1.58;;;5.30;82.20;;;;;;5070511;28;20040;-70
2023/12/12 05:58:14;;;;;;;2.95;2.00;;;5.30;82.20;;;;;;5053750;28;20398;-73
2023/12/12 06:00:40;;;;;;;2.05;1.23;;;5.30;82.20;;;;;;5052915;28;20036;-73
2023/12/12 06:03:06;;;;;;;4.05;2.70;;;5.30;82.10;;;;;;5071601;28;20378;-73
2023/12/12 06:05:32;;;;;;;5.10;3.00;;;5.30;82.10;;;;;;5072260;28;20094;-73
2023/12/12 06:07:58;;;;;;;9.13;3.22;;;5.40;82.10;;;;;;5057076;28;20032;-70
2023/12/12 06:10:24;;;;;;;3.65;1.40;;;5.40;82.10;;;;;;5073418;28;20045;-72
2023/12/12 06:12:50;;;;;;;3.85;2.00;;;5.40;81.90;;;;;;5073603;28;20127;-71
2023/12/12 06:15:16;;;;;;;3.08;1.80;;;5.40;81.80;;;;;;5074677;28;20393;-73
2023/12/12 06:17:42;;;;;;;2.95;1.73;;;5.50;81.90;;;;;;5075189;28;20041;-71
2023/12/12 06:20:09;;;;;;;2.33;1.70;;;5.50;81.90;;;;;;5074301;28;20458;-74
2023/12/12 06:22:35;;;;;;;2.22;1.02;;;5.50;81.30;;;;;;5056967;28;20047;-73
2023/12/12 06:25:01;;;;;;;3.08;1.85;;;5.50;81.70;;;;;;5073569;28;20433;-72
2023/12/12 06:27:27;;;;;;;2.83;1.85;;;5.50;81.90;;;;;;5073611;28;20164;-74
2023/12/12 06:29:54;;;;;;;3.67;2.03;;;5.50;82.00;;;;;;5073505;28;20040;-73
2023/12/12 06:32:22;;;;;;;4.78;2.50;;;5.50;81.90;;;;;;5056475;28;20386;-73
2023/12/12 06:34:48;;;;;;;5.47;4.30;;;5.60;81.70;;;;;;5056880;28;20041;-73
2023/12/12 06:37:14;;;;;;;7.53;2.45;;;5.60;81.80;;;;;;5074715;28;20028;-74
2023/12/12 06:39:41;;;;;;;3.53;2.42;;;5.70;81.90;;;;;;5073571;28;20051;-74
2023/12/12 06:42:07;;;;;;;7.53;3.65;;;5.70;81.90;;;;;;5073955;28;20041;-74
2023/12/12 06:44:33;;;;;;;4.80;2.03;;;5.70;81.80;;;;;;5074715;28;20036;-71
2023/12/12 06:46:59;;;;;;;5.18;1.50;;;5.80;81.70;;;;;;5073049;28;20094;-74
2023/12/12 06:49:25;;;;;;;6.47;3.85;;;5.80;81.50;;;;;;5074720;28;20042;-75
2023/12/12 06:51:51;;;;;;;7.30;2.53;;;5.80;81.50;;;;;;5073926;28;20082;-70
2023/12/12 06:54:17;;;;;;;4.57;2.80;;;5.80;81.70;;;;;;5074360;28;20052;-73
2023/12/12 06:56:43;;;;;;;7.63;5.15;;;5.80;81.80;;;;;;5074065;28;20029;-71
2023/12/12 06:59:09;;;;;;;10.85;5.13;;;5.80;82.10;;;;;;5074218;28;20359;-71
2023/12/12 07:01:35;;;;;;;8.43;3.88;;;5.80;82.00;;;;;;5072322;28;20035;-71
2023/12/12 07:04:02;;;;;;;13.70;6.95;;;5.90;82.00;;;;;;5072410;28;20053;-73
2023/12/12 07:06:27;;;;;;;;;;;5.90;81.90;;;;;;5056321;28;20464;-73
2023/12/12 07:08:53;;;;;;;10.95;7.18;;;5.90;82.00;;;;;;5074167;28;20003;-73
2023/12/12 07:11:19;;;;;;;13.93;7.32;;;6.00;82.00;;;;;;5072094;28;20098;-71
2023/12/12 07:13:45;;;;;;;9.85;7.30;;;6.00;82.00;;;;;;5074177;28;20469;-73
2023/12/12 07:16:12;;;;;;;21.10;8.93;;;6.10;82.10;;;;;;5072400;28;20086;-73
2023/12/12 07:18:38;;;;;;;20.08;7.68;;;6.10;82.20;;;;;;5074148;28;20043;-70
2023/12/12 07:21:06;;;;;;;7.93;6.55;;;6.20;81.90;;;;;;5072008;28;20036;-71
2023/12/12 07:23:32;;;;;;;15.45;9.38;;;6.20;81.90;;;;;;5072405;28;20127;-71
2023/12/12 07:25:59;;;;;;;13.77;7.60;;;6.20;81.20;;;;;;5072415;28;20033;-70
2023/12/12 07:28:26;;;;;;;12.52;7.45;;;6.30;81.80;;;;;;5072548;28;20029;-73
2023/12/12 07:30:53;;;;;;;16.52;5.05;;;6.30;82.10;;;;;;5071731;28;20029;-73
2023/12/12 07:33:19;;;;;;;10.77;8.70;;;6.30;82.50;;;;;;5072398;28;20115;-73
2023/12/12 07:35:46;;;;;;;8.00;4.82;;;6.40;82.20;;;;;;5072296;28;20032;-73
2023/12/12 07:38:12;;;;;;;12.10;5.30;;;6.40;82.10;;;;;;5072485;28;20036;-71
2023/12/12 07:40:38;;;;;;;10.40;6.18;;;6.50;82.00;;;;;;5055222;28;20032;-73
2023/12/12 07:43:04;;;;;;;9.15;6.93;;;6.50;81.80;;;;;;5073607;28;20041;-73
2023/12/12 07:45:30;;;;;;;12.18;7.03;;;6.60;81.50;;;;;;5072006;28;20037;-70
2023/12/12 07:47:56;;;;;;;13.93;9.57;;;6.60;81.30;;;;;;5071867;28;20371;-70
2023/12/12 07:50:22;;;;;;;9.40;5.80;;;6.70;81.30;;;;;;5071542;28;20114;-71
2023/12/12 07:52:49;;;;;;;16.48;10.70;;;6.80;81.10;;;;;;5071929;28;20024;-73
2023/12/12 07:55:15;;;;;;;9.45;6.88;;;6.80;80.80;;;;;;5071570;28;20060;-71
2023/12/12 07:57:41;;;;;;;10.77;7.93;;;6.90;80.70;;;;;;5073260;28;20103;-73
2023/12/12 08:00:10;;;;;;;;;;;7.00;79.70;;;;;;5071964;28;20067;-71
2023/12/12 08:02:37;;;;;;;12.77;7.50;;;7.00;80.00;;;;;;5072030;28;19998;-71
2023/12/12 08:05:03;;;;;;;14.20;5.25;;;7.20;79.80;;;;;;5071479;28;20418;-72
2023/12/12 08:07:30;;;;;;;11.27;6.50;;;7.30;79.10;;;;;;5073230;28;20036;-73
2023/12/12 08:09:56;;;;;;;18.60;9.43;;;7.40;79.30;;;;;;5072768;28;20052;-71
2023/12/12 08:12:41;;;;;;;30.70;11.15;;;7.50;79.20;;;;;;5072707;28;20043;-71
2023/12/12 08:15:07;;;;;;;12.52;4.20;;;7.60;79.00;;;;;;5071371;28;20554;-73
2023/12/12 08:17:33;;;;;;;9.13;4.50;;;7.60;78.20;;;;;;5072882;28;20024;-74
2023/12/12 08:19:59;;;;;;;8.52;4.38;;;7.80;78.90;;;;;;5073158;28;20402;-71
2023/12/12 08:22:26;;;;;;;4.57;2.72;;;7.90;78.40;;;;;;5054327;28;20036;-72
2023/12/12 08:24:54;;;;;;;7.30;4.85;;;8.00;77.60;;;;;;5071220;28;20039;-71
2023/12/12 08:27:20;;;;;;;5.00;3.17;;;8.10;78.40;;;;;;5071138;28;20435;-73
2023/12/12 08:29:48;;;;;;;9.23;4.63;;;8.20;78.20;;;;;;5071055;28;20028;-71
2023/12/12 08:32:15;;;;;;;10.00;3.80;;;8.30;77.50;;;;;;5072002;28;20049;-71
2023/12/12 08:34:41;;;;;;;12.60;6.93;;;8.40;78.30;;;;;;5072762;28;20077;-74
2023/12/12 08:37:07;;;;;;;3.92;2.85;;;8.40;78.30;;;;;;5072527;28;20033;-73
2023/12/12 08:39:33;;;;;;;8.93;5.00;;;8.50;78.60;;;;;;5072777;28;20037;-71
2023/12/12 08:41:59;;;;;;;4.13;3.10;;;8.60;78.20;;;;;;5070412;28;20029;-71
2023/12/12 08:44:25;;;;;;;5.43;3.13;;;8.70;78.00;;;;;;5071093;28;20047;-73
2023/12/12 08:46:51;;;;;;;6.93;3.35;;;8.90;77.80;;;;;;5072309;28;20044;-70
2023/12/12 08:49:18;;;;;;;7.40;3.65;;;9.00;77.20;;;;;;5072638;28;20443;-74
2023/12/12 08:51:45;;;;;;;3.08;2.10;;;9.10;77.00;;;;;;5070403;28;20036;-73
2023/12/12 08:54:11;;;;;;;6.15;4.13;;;9.20;76.70;;;;;;5072272;28;20489;-71
2023/12/12 08:56:38;;;;;;;4.20;2.70;;;9.30;76.50;;;;;;5070920;28;20032;-73
2023/12/12 08:59:04;;;;;;;8.60;4.30;;;9.50;75.60;;;;;;5070996;28;20042;-71
2023/12/12 09:01:30;;;;;;;;;;;9.90;74.90;;;;;;5050706;28;20044;-71
2023/12/12 09:03:56;;;;;;;6.25;4.10;;;10.10;73.90;;;;;;5052106;28;19925;-71
2023/12/12 09:06:22;;;;;;;5.70;2.15;;;10.40;73.20;;;;;;5050838;28;20041;-74
2023/12/12 09:08:48;;;;;;;4.90;3.75;;;10.70;72.70;;;;;;5052112;28;20107;-74
2023/12/12 09:11:14;;;;;;;3.75;2.13;;;11.10;71.50;;;;;;5060196;28;20033;-71
2023/12/12 09:13:59;;;;;;;7.07;3.25;;;11.30;70.70;;;;;;5071159;28;20037;-71
2023/12/12 09:16:25;;;;;;;2.65;1.90;;;11.50;70.40;;;;;;5053934;28;20025;-74
2023/12/12 09:18:51;;;;;;;6.82;4.72;;;12.30;68.70;;;;;;5072290;28;20098;-71
2023/12/12 09:21:17;;;;;;;2.47;0.88;;;12.50;67.70;;;;;;5070226;28;20090;-70
2023/12/12 09:23:43;;;;;;;2.15;1.58;;;12.60;67.40;;;;;;5070580;28;20040;-71
2023/12/12 09:26:28;;;;;;;5.88;3.35;;;12.70;67.40;;;;;;5071682;28;20029;-71
2023/12/12 09:28:54;;;;;;;3.72;2.60;;;12.70;67.70;;;;;;5072083;28;20052;-74
2023/12/12 09:31:32;;;;;;;2.22;1.25;;;12.90;67.20;;;;;;5070182;28;20029;-74
2023/12/12 09:33:58;;;;;;;6.70;2.28;;;13.00;66.10;;;;;;5070648;28;20041;-71
2023/12/12 09:36:24;;;;;;;2.67;1.67;;;13.30;66.10;;;;;;5070573;28;20032;-71
2023/12/12 09:38:50;;;;;;;5.88;3.55;;;14.00;64.50;;;;;;5072193;28;20041;-71
2023/12/12 09:41:22;;;;;;;2.50;1.67;;;14.30;63.20;;;;;;5075322;28;20033;-71
2023/12/12 09:43:50;;;;;;;2.40;1.70;;;14.20;62.80;;;;;;5075563;28;20063;-74
2023/12/12 09:46:17;;;;;;;1.92;1.15;;;13.90;64.00;;;;;;5074416;28;20566;-74
2023/12/12 09:51:31;;;;;;;3.08;1.75;;;14.00;64.50;;;;;;5075096;28;20033;-74
2023/12/12 09:53:57;;;;;;;2.50;1.08;;;14.10;64.00;;;;;;5074093;28;20524;-71
2023/12/12 09:56:24;;;;;;;4.65;2.38;;;14.10;65.10;;;;;;5074386;28;20041;-71
2023/12/12 09:58:50;;;;;;;3.17;2.15;;;13.80;64.80;;;;;;5074343;28;20040;-71
2023/12/12 10:01:17;;;;;;;7.18;3.95;;;13.60;65.70;;;;;;5073473;28;20029;-70
2023/12/12 10:03:44;;;;;;;6.72;4.45;;;13.50;65.40;;;;;;5075238;28;20036;-72
2023/12/12 10:06:12;;;;;;;3.70;1.77;;;13.30;66.00;;;;;;5074019;28;20025;-74
2023/12/12 10:08:40;;;;;;;3.35;1.98;;;13.00;65.50;;;;;;5075707;28;20028;-71
2023/12/12 10:11:08;;;;;;;2.15;1.90;;;12.90;65.90;;;;;;5073468;28;20036;-71
2023/12/12 10:13:58;;;;;;;3.50;2.05;;;12.70;65.90;;;;;;5073984;28;20036;-74
2023/12/12 10:16:30;;;;;;;2.65;2.08;;;12.50;66.10;;;;;;5073994;28;20028;-71
2023/12/12 10:19:01;;;;;;;4.28;3.03;;;12.40;66.40;;;;;;5075265;28;20048;-72
2023/12/12 10:21:28;;;;;;;4.43;2.88;;;12.30;66.60;;;;;;5073201;28;20059;-70
2023/12/12 10:23:55;;;;;;;3.90;2.33;;;12.20;67.00;;;;;;5057026;28;20040;-71
2023/12/12 10:26:40;;;;;;;5.90;3.92;;;12.10;67.10;;;;;;5056591;28;20037;-74
2023/12/12 10:29:06;;;;;;;3.20;2.28;;;12.00;67.60;;;;;;5074787;28;20448;-71
2023/12/12 10:31:35;;;;;;;3.00;1.95;;;11.90;68.40;;;;;;5074350;28;20032;-73
2023/12/12 10:34:01;;;;;;;6.32;4.10;;;11.80;68.50;;;;;;5073484;28;20048;-71
2023/12/12 10:36:27;;;;;;;4.68;3.30;;;11.70;69.00;;;;;;5073503;28;20482;-70
2023/12/12 10:38:53;;;;;;;7.35;4.72;;;11.60;69.20;;;;;;5073529;28;20052;-71
2023/12/12 10:41:20;;;;;;;6.07;2.83;;;11.60;69.40;;;;;;5072801;28;20095;-70
2023/12/12 10:43:47;;;;;;;3.85;2.33;;;11.50;69.80;;;;;;5074664;28;20386;-74
2023/12/12 10:46:17;;;;;;;5.88;3.13;;;11.40;69.90;;;;;;5073288;28;20520;-71
2023/12/12 10:49:02;;;;;;;6.68;4.25;;;11.40;70.10;;;;;;5056728;28;20047;-71
2023/12/12 10:51:29;;;;;;;3.72;2.67;;;11.40;69.70;;;;;;5071903;28;20037;-73
2023/12/12 10:53:55;;;;;;;;;;;11.50;70.20;;;;;;5074852;28;20037;-73
2023/12/12 10:56:21;;;;;;;1.83;1.30;;;11.50;70.10;;;;;;5073320;28;19959;-74
2023/12/12 10:58:48;;;;;;;4.97;1.77;;;11.50;70.20;;;;;;5073343;28;20397;-74
2023/12/12 11:01:15;;;;;;;2.67;1.23;;;11.50;70.10;;;;;;5072478;28;20059;-70
2023/12/12 11:03:42;;;;;;;5.45;2.10;;;11.50;69.40;;;;;;5072912;28;20068;-70
2023/12/12 11:06:10;;;;;;;3.28;2.38;;;11.50;69.40;;;;;;5074170;28;20074;-73
2023/12/12 11:08:37;;;;;;;2.92;1.55;;;11.50;70.00;;;;;;5073006;28;20059;-74
2023/12/12 11:11:09;;;;;;;0.73;0.70;;;11.40;69.70;;;;;;5072233;28;20051;-70
2023/12/12 11:13:39;;;;;;;3.47;1.75;;;11.40;70.00;;;;;;5072790;28;20033;-70
2023/12/12 11:16:08;;;;;;;2.22;1.67;;;11.40;70.00;;;;;;5056262;28;20033;-70
2023/12/12 11:18:55;;;;;;;3.67;2.20;;;11.30;70.30;;;;;;5055931;28;20040;-74
2023/12/12 11:21:58;;;;;;;;;;;11.30;70.40;;;;;;5072780;28;20051;-74
2023/12/12 11:25:03;;;;;;;2.75;1.65;;;11.40;70.20;;;;;;5073386;28;19923;-71
2023/12/12 11:27:30;;;;;;;2.13;1.45;;;11.40;70.60;;;;;;5072468;28;20047;-71
2023/12/12 11:29:56;;;;;;;11.60;3.88;;;11.30;70.60;;;;;;5072742;28;20028;-74
2023/12/12 11:32:24;;;;;;;3.85;1.80;;;11.30;70.90;;;;;;5073102;28;20444;-70
2023/12/12 11:34:51;;;;;;;2.63;1.30;;;11.30;70.10;;;;;;5055741;28;20029;-74
2023/12/12 11:37:17;;;;;;;5.35;3.50;;;11.30;70.80;;;;;;5072304;28;20043;-74
2023/12/12 11:40:00;;;;;;;4.72;3.03;;;11.30;70.90;;;;;;5073934;28;20033;-71
2023/12/12 11:42:26;;;;;;;2.70;2.45;;;11.30;71.00;;;;;;5072885;28;20039;-70
2023/12/12 11:44:54;;;;;;;;;;;11.30;71.00;;;;;;5056013;28;20103;-74
2023/12/12 11:47:25;;;;;;;3.67;1.85;;;11.20;70.80;;;;;;5072203;28;19916;-71
2023/12/12 11:50:18;;;;;;;5.80;2.90;;;11.20;71.10;;;;;;5072388;28;20055;-74
2023/12/12 11:52:45;;;;;;;9.90;4.82;;;11.20;72.00;;;;;;5073074;28;20045;-74
2023/12/12 11:55:42;;;;;;;4.75;2.85;;;11.10;72.10;;;;;;5073161;28;20032;-73
2023/12/12 11:58:09;;;;;;;2.58;1.70;;;11.10;72.40;;;;;;5056388;28;20040;-71
2023/12/12 12:00:53;;;;;;;3.25;2.28;;;11.10;71.60;;;;;;5054489;28;20040;-72
2023/12/12 12:03:22;;;;;;;4.13;3.00;;;11.20;72.20;;;;;;5071585;28;20055;-74
2023/12/12 12:05:48;;;;;;;7.57;2.58;;;11.30;72.10;;;;;;5073086;28;20051;-74
2023/12/12 12:08:15;;;;;;;3.80;1.60;;;11.30;72.10;;;;;;5071631;28;20052;-74
2023/12/12 12:10:41;;;;;;;4.47;1.73;;;11.40;72.10;;;;;;5072309;28;20048;-71
2023/12/12 12:13:07;;;;;;;6.55;2.25;;;11.40;71.80;;;;;;5072990;28;20053;-74
2023/12/12 12:15:33;;;;;;;3.10;2.10;;;11.50;71.80;;;;;;5072687;28;20048;-71
2023/12/12 12:17:59;;;;;;;4.78;3.33;;;11.60;71.60;;;;;;5071615;28;20070;-73
2023/12/12 12:20:26;;;;;;;2.40;1.95;;;11.60;71.10;;;;;;5070872;28;20037;-72
2023/12/12 12:22:52;;;;;;;5.43;3.00;;;11.70;71.10;;;;;;5054882;28;20079;-74
2023/12/12 12:25:37;;;;;;;5.60;2.22;;;11.70;71.00;;;;;;5071183;28;20059;-70
2023/12/12 12:28:03;;;;;;;3.70;2.13;;;11.60;71.10;;;;;;5072464;28;20056;-70
2023/12/12 12:30:29;;;;;;;2.78;1.88;;;11.60;71.00;;;;;;5072105;28;20036;-73
2023/12/12 12:33:14;;;;;;;1.52;1.05;;;11.60;71.00;;;;;;5072557;28;20047;-71
2023/12/12 12:35:59;;;;;;;3.65;1.42;;;11.60;71.40;;;;;;5071103;28;20039;-71
2023/12/12 12:38:43;;;;;;;4.50;1.42;;;11.50;71.00;;;;;;5071296;28;20036;-70
2023/12/12 12:41:28;;;;;;;2.08;1.15;;;11.50;72.00;;;;;;5050518;28;20438;-70
2023/12/12 12:43:56;;;;;;;3.22;1.85;;;11.40;72.60;;;;;;5050887;28;20044;-70
2023/12/12 12:46:22;;;;;;;3.90;1.42;;;11.40;72.90;;;;;;5051029;28;20071;-70
2023/12/12 12:48:48;;;;;;;;;;;11.40;73.00;;;;;;5051867;28;20098;-71
2023/12/12 12:51:14;;;;;;;3.72;1.55;;;11.30;72.90;;;;;;5061659;28;20365;-71
2023/12/12 12:53:40;;;;;;;3.28;1.45;;;11.30;72.90;;;;;;5070701;28;20516;-73
2023/12/12 12:56:07;;;;;;;;;;;11.30;73.00;;;;;;5072542;28;20078;-71
2023/12/12 12:58:33;;;;;;;8.77;4.67;;;11.30;72.90;;;;;;5072492;28;20027;-71
2023/12/12 13:01:00;;;;;;;3.97;2.33;;;11.30;73.20;;;;;;5053772;28;20865;-73
2023/12/12 13:03:25;;;;;;;;;;;11.30;73.40;;;;;;5072577;28;20029;-70
2023/12/12 13:05:52;;;;;;;10.27;6.05;;;11.30;73.60;;;;;;5071185;28;19985;-70
2023/12/12 13:08:19;;;;;;;6.25;3.03;;;11.20;74.00;;;;;;5070843;28;20052;-70